sensor_id;sensor_type;location;lat;lon;timestamp;P1;durP1;ratioP1;P2;durP2;ratioP2
52982;SDS011;48698;45.736;13.926;2023-02-01T00:00:56;39.10;;;27.75;;
52982;SDS011;48698;45.736;13.926;2023-02-01T00:06:00;29.67;;;20.85;;
52982;SDS011;48698;45.736;13.926;2023-02-01T00:11:05;34.05;;;24.23;;
52982;SDS011;48698;45.736;13.926;2023-02-01T00:16:16;42.80;;;30.80;;
52982;SDS011;48698;45.736;13.926;2023-02-01T00:21:22;47.78;;;33.25;;
52982;SDS011;48698;45.736;13.926;2023-02-01T00:31:50;55.60;;;36.15;;
52982;SDS011;48698;45.736;13.926;2023-02-01T00:41:59;46.42;;;32.20;;
52982;SDS011;48698;45.736;13.926;2023-02-01T00:47:02;40.63;;;28.10;;
52982;SDS011;48698;45.736;13.926;2023-02-01T00:52:06;40.85;;;28.45;;
52982;SDS011;48698;45.736;13.926;2023-02-01T00:57:09;40.17;;;27.52;;
52982;SDS011;48698;45.736;13.926;2023-02-01T01:02:13;28.70;;;19.42;;
52982;SDS011;48698;45.736;13.926;2023-02-01T01:07:17;25.73;;;17.67;;
52982;SDS011;48698;45.736;13.926;2023-02-01T01:12:20;36.03;;;24.85;;
52982;SDS011;48698;45.736;13.926;2023-02-01T01:17:23;35.08;;;23.35;;
52982;SDS011;48698;45.736;13.926;2023-02-01T01:22:27;40.08;;;26.27;;
52982;SDS011;48698;45.736;13.926;2023-02-01T01:27:30;30.63;;;21.02;;
52982;SDS011;48698;45.736;13.926;2023-02-01T01:32:33;31.88;;;20.60;;
52982;SDS011;48698;45.736;13.926;2023-02-01T01:37:37;36.35;;;23.67;;
52982;SDS011;48698;45.736;13.926;2023-02-01T01:42:40;37.65;;;25.10;;
52982;SDS011;48698;45.736;13.926;2023-02-01T01:52:51;37.17;;;24.55;;
52982;SDS011;48698;45.736;13.926;2023-02-01T01:58:02;33.20;;;23.33;;
52982;SDS011;48698;45.736;13.926;2023-02-01T02:03:15;33.47;;;21.95;;
52982;SDS011;48698;45.736;13.926;2023-02-01T02:08:22;30.98;;;20.90;;
52982;SDS011;48698;45.736;13.926;2023-02-01T02:13:33;30.92;;;20.55;;
52982;SDS011;48698;45.736;13.926;2023-02-01T02:29:56;29.05;;;20.63;;
52982;SDS011;48698;45.736;13.926;2023-02-01T02:51:51;32.85;;;22.83;;
52982;SDS011;48698;45.736;13.926;2023-02-01T02:57:19;30.67;;;21.13;;
52982;SDS011;48698;45.736;13.926;2023-02-01T03:02:46;29.80;;;20.75;;
52982;SDS011;48698;45.736;13.926;2023-02-01T03:23:56;31.40;;;23.17;;
52982;SDS011;48698;45.736;13.926;2023-02-01T03:29:07;29.77;;;20.27;;
52982;SDS011;48698;45.736;13.926;2023-02-01T03:34:14;30.55;;;21.02;;
52982;SDS011;48698;45.736;13.926;2023-02-01T03:39:23;29.25;;;20.42;;
52982;SDS011;48698;45.736;13.926;2023-02-01T03:44:36;33.20;;;22.38;;
52982;SDS011;48698;45.736;13.926;2023-02-01T03:49:45;32.00;;;21.73;;
52982;SDS011;48698;45.736;13.926;2023-02-01T03:54:52;33.22;;;23.38;;
52982;SDS011;48698;45.736;13.926;2023-02-01T04:00:09;27.55;;;19.58;;
52982;SDS011;48698;45.736;13.926;2023-02-01T04:05:25;31.15;;;21.40;;
52982;SDS011;48698;45.736;13.926;2023-02-01T04:10:29;33.10;;;22.85;;
52982;SDS011;48698;45.736;13.926;2023-02-01T04:15:32;36.10;;;25.08;;
52982;SDS011;48698;45.736;13.926;2023-02-01T04:20:37;39.38;;;26.88;;
52982;SDS011;48698;45.736;13.926;2023-02-01T04:25:41;35.63;;;23.70;;
52982;SDS011;48698;45.736;13.926;2023-02-01T04:30:45;38.65;;;26.52;;
52982;SDS011;48698;45.736;13.926;2023-02-01T04:35:49;42.37;;;28.13;;
52982;SDS011;48698;45.736;13.926;2023-02-01T04:40:52;40.58;;;27.00;;
52982;SDS011;48698;45.736;13.926;2023-02-01T04:45:56;34.35;;;24.58;;
52982;SDS011;48698;45.736;13.926;2023-02-01T04:50:59;35.95;;;25.27;;
52982;SDS011;48698;45.736;13.926;2023-02-01T04:56:03;51.15;;;36.17;;
52982;SDS011;48698;45.736;13.926;2023-02-01T05:01:06;49.15;;;32.50;;
52982;SDS011;48698;45.736;13.926;2023-02-01T05:06:11;102.17;;;62.80;;
52982;SDS011;48698;45.736;13.926;2023-02-01T05:11:14;81.80;;;56.63;;
52982;SDS011;48698;45.736;13.926;2023-02-01T05:16:36;34.90;;;26.42;;
52982;SDS011;48698;45.736;13.926;2023-02-01T05:21:39;37.53;;;26.63;;
52982;SDS011;48698;45.736;13.926;2023-02-01T05:26:43;45.08;;;33.38;;
52982;SDS011;48698;45.736;13.926;2023-02-01T05:31:46;43.22;;;31.85;;
52982;SDS011;48698;45.736;13.926;2023-02-01T05:36:50;42.95;;;33.55;;
52982;SDS011;48698;45.736;13.926;2023-02-01T05:41:54;44.40;;;31.77;;
52982;SDS011;48698;45.736;13.926;2023-02-01T05:46:57;81.80;;;71.07;;
52982;SDS011;48698;45.736;13.926;2023-02-01T05:52:01;61.13;;;44.95;;
52982;SDS011;48698;45.736;13.926;2023-02-01T05:57:04;52.00;;;38.22;;
52982;SDS011;48698;45.736;13.926;2023-02-01T06:02:08;45.65;;;34.05;;
52982;SDS011;48698;45.736;13.926;2023-02-01T06:07:13;38.97;;;29.60;;
52982;SDS011;48698;45.736;13.926;2023-02-01T06:12:16;38.40;;;29.80;;
52982;SDS011;48698;45.736;13.926;2023-02-01T06:17:20;68.93;;;45.55;;
52982;SDS011;48698;45.736;13.926;2023-02-01T06:22:23;56.38;;;42.05;;
52982;SDS011;48698;45.736;13.926;2023-02-01T06:27:26;48.58;;;33.78;;
52982;SDS011;48698;45.736;13.926;2023-02-01T06:32:30;59.63;;;42.60;;
52982;SDS011;48698;45.736;13.926;2023-02-01T06:37:42;56.10;;;39.50;;
52982;SDS011;48698;45.736;13.926;2023-02-01T06:42:47;44.97;;;32.40;;
52982;SDS011;48698;45.736;13.926;2023-02-01T06:47:51;35.78;;;27.08;;
52982;SDS011;48698;45.736;13.926;2023-02-01T06:52:55;44.90;;;35.25;;
52982;SDS011;48698;45.736;13.926;2023-02-01T06:57:58;47.97;;;36.58;;
52982;SDS011;48698;45.736;13.926;2023-02-01T07:03:04;43.33;;;30.70;;
52982;SDS011;48698;45.736;13.926;2023-02-01T07:08:07;42.80;;;33.33;;
52982;SDS011;48698;45.736;13.926;2023-02-01T07:13:10;46.65;;;37.20;;
52982;SDS011;48698;45.736;13.926;2023-02-01T07:18:14;47.15;;;35.30;;
52982;SDS011;48698;45.736;13.926;2023-02-01T07:23:18;44.75;;;34.42;;
52982;SDS011;48698;45.736;13.926;2023-02-01T07:28:23;44.03;;;33.37;;
52982;SDS011;48698;45.736;13.926;2023-02-01T07:33:26;50.30;;;34.78;;
52982;SDS011;48698;45.736;13.926;2023-02-01T07:38:31;66.60;;;48.60;;
52982;SDS011;48698;45.736;13.926;2023-02-01T07:43:34;40.70;;;29.58;;
52982;SDS011;48698;45.736;13.926;2023-02-01T07:48:38;38.83;;;28.27;;
52982;SDS011;48698;45.736;13.926;2023-02-01T07:53:42;72.68;;;58.08;;
52982;SDS011;48698;45.736;13.926;2023-02-01T07:58:48;42.50;;;32.67;;
52982;SDS011;48698;45.736;13.926;2023-02-01T08:03:54;287.75;;;226.65;;
52982;SDS011;48698;45.736;13.926;2023-02-01T08:08:59;32.03;;;24.75;;
52982;SDS011;48698;45.736;13.926;2023-02-01T08:14:03;31.13;;;23.17;;
52982;SDS011;48698;45.736;13.926;2023-02-01T08:19:08;63.00;;;44.97;;
52982;SDS011;48698;45.736;13.926;2023-02-01T08:24:11;60.22;;;43.60;;
52982;SDS011;48698;45.736;13.926;2023-02-01T08:29:14;52.67;;;40.03;;
52982;SDS011;48698;45.736;13.926;2023-02-01T08:34:17;39.17;;;28.60;;
52982;SDS011;48698;45.736;13.926;2023-02-01T08:39:21;36.33;;;25.80;;
52982;SDS011;48698;45.736;13.926;2023-02-01T08:44:24;45.30;;;32.30;;
52982;SDS011;48698;45.736;13.926;2023-02-01T08:49:28;124.97;;;77.20;;
52982;SDS011;48698;45.736;13.926;2023-02-01T08:54:31;37.92;;;28.20;;
52982;SDS011;48698;45.736;13.926;2023-02-01T08:59:35;31.77;;;22.92;;
52982;SDS011;48698;45.736;13.926;2023-02-01T09:04:38;35.78;;;25.75;;
52982;SDS011;48698;45.736;13.926;2023-02-01T09:09:48;30.85;;;22.80;;
52982;SDS011;48698;45.736;13.926;2023-02-01T09:14:51;30.23;;;22.60;;
52982;SDS011;48698;45.736;13.926;2023-02-01T09:19:55;69.93;;;47.67;;
52982;SDS011;48698;45.736;13.926;2023-02-01T09:24:58;32.97;;;22.63;;
52982;SDS011;48698;45.736;13.926;2023-02-01T09:30:02;196.10;;;110.93;;
52982;SDS011;48698;45.736;13.926;2023-02-01T09:35:07;34.28;;;26.05;;
52982;SDS011;48698;45.736;13.926;2023-02-01T09:40:15;75.07;;;42.70;;
52982;SDS011;48698;45.736;13.926;2023-02-01T09:45:21;28.02;;;22.20;;
52982;SDS011;48698;45.736;13.926;2023-02-01T09:50:37;31.00;;;22.30;;
52982;SDS011;48698;45.736;13.926;2023-02-01T09:55:51;33.75;;;23.98;;
52982;SDS011;48698;45.736;13.926;2023-02-01T10:00:59;35.75;;;25.38;;
52982;SDS011;48698;45.736;13.926;2023-02-01T10:11:27;32.42;;;23.35;;
52982;SDS011;48698;45.736;13.926;2023-02-01T10:16:48;100.00;;;61.17;;
52982;SDS011;48698;45.736;13.926;2023-02-01T10:22:02;33.25;;;25.35;;
52982;SDS011;48698;45.736;13.926;2023-02-01T10:27:21;31.13;;;22.45;;
52982;SDS011;48698;45.736;13.926;2023-02-01T10:32:30;28.35;;;21.48;;
52982;SDS011;48698;45.736;13.926;2023-02-01T10:37:37;28.13;;;20.13;;
52982;SDS011;48698;45.736;13.926;2023-02-01T10:42:44;35.20;;;22.60;;
52982;SDS011;48698;45.736;13.926;2023-02-01T10:52:57;28.70;;;20.35;;
52982;SDS011;48698;45.736;13.926;2023-02-01T10:58:07;32.03;;;22.15;;
52982;SDS011;48698;45.736;13.926;2023-02-01T11:08:48;29.98;;;21.25;;
52982;SDS011;48698;45.736;13.926;2023-02-01T11:13:57;27.88;;;22.25;;
52982;SDS011;48698;45.736;13.926;2023-02-01T11:19:14;27.35;;;20.38;;
52982;SDS011;48698;45.736;13.926;2023-02-01T11:24:36;38.20;;;24.45;;
52982;SDS011;48698;45.736;13.926;2023-02-01T11:29:45;27.15;;;20.58;;
52982;SDS011;48698;45.736;13.926;2023-02-01T11:34:54;29.00;;;21.85;;
52982;SDS011;48698;45.736;13.926;2023-02-01T11:40:23;25.08;;;20.00;;
52982;SDS011;48698;45.736;13.926;2023-02-01T11:45:31;29.83;;;20.65;;
52982;SDS011;48698;45.736;13.926;2023-02-01T12:07:18;28.05;;;19.67;;
52982;SDS011;48698;45.736;13.926;2023-02-01T12:39:58;24.63;;;19.30;;
52982;SDS011;48698;45.736;13.926;2023-02-01T12:45:30;26.48;;;18.75;;
52982;SDS011;48698;45.736;13.926;2023-02-01T12:50:38;36.22;;;20.83;;
52982;SDS011;48698;45.736;13.926;2023-02-01T12:55:49;25.52;;;20.70;;
52982;SDS011;48698;45.736;13.926;2023-02-01T13:01:07;33.67;;;22.17;;
52982;SDS011;48698;45.736;13.926;2023-02-01T13:06:17;27.55;;;21.20;;
52982;SDS011;48698;45.736;13.926;2023-02-01T13:11:29;55.17;;;27.08;;
52982;SDS011;48698;45.736;13.926;2023-02-01T13:16:43;31.88;;;21.65;;
52982;SDS011;48698;45.736;13.926;2023-02-01T13:21:58;26.05;;;21.33;;
52982;SDS011;48698;45.736;13.926;2023-02-01T13:27:14;31.65;;;21.67;;
52982;SDS011;48698;45.736;13.926;2023-02-01T13:43:28;27.80;;;22.83;;
52982;SDS011;48698;45.736;13.926;2023-02-01T13:53:49;29.48;;;22.67;;
52982;SDS011;48698;45.736;13.926;2023-02-01T13:58:52;32.88;;;25.35;;
52982;SDS011;48698;45.736;13.926;2023-02-01T14:04:01;35.15;;;26.08;;
52982;SDS011;48698;45.736;13.926;2023-02-01T14:19:22;43.15;;;33.63;;
52982;SDS011;48698;45.736;13.926;2023-02-01T14:24:34;46.83;;;33.72;;
52982;SDS011;48698;45.736;13.926;2023-02-01T14:29:40;54.00;;;39.63;;
52982;SDS011;48698;45.736;13.926;2023-02-01T14:40:03;63.40;;;48.90;;
52982;SDS011;48698;45.736;13.926;2023-02-01T14:50:25;72.45;;;53.33;;
52982;SDS011;48698;45.736;13.926;2023-02-01T15:17:24;89.30;;;66.95;;
52982;SDS011;48698;45.736;13.926;2023-02-01T15:22:40;89.82;;;66.65;;
52982;SDS011;48698;45.736;13.926;2023-02-01T15:27:44;86.57;;;65.25;;
52982;SDS011;48698;45.736;13.926;2023-02-01T15:32:48;97.68;;;71.38;;
52982;SDS011;48698;45.736;13.926;2023-02-01T15:43:27;98.93;;;72.57;;
52982;SDS011;48698;45.736;13.926;2023-02-01T15:48:35;105.05;;;75.40;;
52982;SDS011;48698;45.736;13.926;2023-02-01T15:53:43;99.50;;;72.80;;
52982;SDS011;48698;45.736;13.926;2023-02-01T15:58:52;95.50;;;66.60;;
52982;SDS011;48698;45.736;13.926;2023-02-01T16:04:17;97.32;;;71.30;;
52982;SDS011;48698;45.736;13.926;2023-02-01T16:09:22;95.68;;;71.63;;
52982;SDS011;48698;45.736;13.926;2023-02-01T16:14:40;113.78;;;84.15;;
52982;SDS011;48698;45.736;13.926;2023-02-01T16:19:44;122.75;;;85.15;;
52982;SDS011;48698;45.736;13.926;2023-02-01T16:24:47;122.65;;;86.32;;
52982;SDS011;48698;45.736;13.926;2023-02-01T16:29:51;135.38;;;94.90;;
52982;SDS011;48698;45.736;13.926;2023-02-01T16:34:54;190.02;;;118.07;;
52982;SDS011;48698;45.736;13.926;2023-02-01T16:40:00;163.43;;;107.35;;
52982;SDS011;48698;45.736;13.926;2023-02-01T16:45:03;148.52;;;102.28;;
52982;SDS011;48698;45.736;13.926;2023-02-01T16:50:14;130.98;;;92.18;;
52982;SDS011;48698;45.736;13.926;2023-02-01T16:55:25;128.60;;;89.57;;
52982;SDS011;48698;45.736;13.926;2023-02-01T17:00:29;164.68;;;104.15;;
52982;SDS011;48698;45.736;13.926;2023-02-01T17:05:34;235.07;;;124.25;;
52982;SDS011;48698;45.736;13.926;2023-02-01T17:10:37;218.43;;;125.32;;
52982;SDS011;48698;45.736;13.926;2023-02-01T17:15:44;149.45;;;107.22;;
52982;SDS011;48698;45.736;13.926;2023-02-01T17:20:52;156.70;;;111.07;;
52982;SDS011;48698;45.736;13.926;2023-02-01T17:25:56;206.85;;;131.77;;
52982;SDS011;48698;45.736;13.926;2023-02-01T17:31:00;153.87;;;103.77;;
52982;SDS011;48698;45.736;13.926;2023-02-01T17:36:04;142.55;;;95.88;;
52982;SDS011;48698;45.736;13.926;2023-02-01T17:41:10;117.88;;;83.88;;
52982;SDS011;48698;45.736;13.926;2023-02-01T17:46:16;158.60;;;90.78;;
52982;SDS011;48698;45.736;13.926;2023-02-01T17:51:29;143.68;;;96.97;;
52982;SDS011;48698;45.736;13.926;2023-02-01T17:56:34;127.72;;;91.03;;
52982;SDS011;48698;45.736;13.926;2023-02-01T18:01:39;119.53;;;82.33;;
52982;SDS011;48698;45.736;13.926;2023-02-01T18:06:42;130.93;;;90.78;;
52982;SDS011;48698;45.736;13.926;2023-02-01T18:11:47;109.77;;;81.03;;
52982;SDS011;48698;45.736;13.926;2023-02-01T18:22:17;133.30;;;87.22;;
52982;SDS011;48698;45.736;13.926;2023-02-01T18:27:21;179.98;;;113.10;;
52982;SDS011;48698;45.736;13.926;2023-02-01T18:32:27;292.13;;;156.23;;
52982;SDS011;48698;45.736;13.926;2023-02-01T18:37:30;227.13;;;131.32;;
52982;SDS011;48698;45.736;13.926;2023-02-01T18:42:33;137.35;;;94.38;;
52982;SDS011;48698;45.736;13.926;2023-02-01T18:47:35;124.90;;;85.43;;
52982;SDS011;48698;45.736;13.926;2023-02-01T18:52:52;156.90;;;97.90;;
52982;SDS011;48698;45.736;13.926;2023-02-01T18:57:55;258.90;;;137.60;;
52982;SDS011;48698;45.736;13.926;2023-02-01T19:02:58;124.50;;;82.72;;
52982;SDS011;48698;45.736;13.926;2023-02-01T19:08:11;121.00;;;84.30;;
52982;SDS011;48698;45.736;13.926;2023-02-01T19:13:14;165.75;;;104.15;;
52982;SDS011;48698;45.736;13.926;2023-02-01T19:18:17;477.77;;;267.85;;
52982;SDS011;48698;45.736;13.926;2023-02-01T19:23:21;140.00;;;90.83;;
52982;SDS011;48698;45.736;13.926;2023-02-01T19:28:24;159.75;;;100.72;;
52982;SDS011;48698;45.736;13.926;2023-02-01T19:33:27;153.25;;;100.32;;
52982;SDS011;48698;45.736;13.926;2023-02-01T19:38:31;158.65;;;100.45;;
52982;SDS011;48698;45.736;13.926;2023-02-01T19:43:34;161.13;;;100.95;;
52982;SDS011;48698;45.736;13.926;2023-02-01T19:48:38;163.13;;;100.18;;
52982;SDS011;48698;45.736;13.926;2023-02-01T19:53:40;148.75;;;98.05;;
52982;SDS011;48698;45.736;13.926;2023-02-01T19:58:43;163.40;;;101.35;;
52982;SDS011;48698;45.736;13.926;2023-02-01T20:03:46;158.05;;;102.22;;
52982;SDS011;48698;45.736;13.926;2023-02-01T20:08:49;194.07;;;127.20;;
52982;SDS011;48698;45.736;13.926;2023-02-01T20:13:52;135.00;;;91.28;;
52982;SDS011;48698;45.736;13.926;2023-02-01T20:18:55;147.45;;;94.38;;
52982;SDS011;48698;45.736;13.926;2023-02-01T20:23:58;154.43;;;100.65;;
52982;SDS011;48698;45.736;13.926;2023-02-01T20:29:07;159.10;;;104.25;;
52982;SDS011;48698;45.736;13.926;2023-02-01T20:34:13;141.18;;;92.90;;
52982;SDS011;48698;45.736;13.926;2023-02-01T20:39:16;159.35;;;104.65;;
52982;SDS011;48698;45.736;13.926;2023-02-01T20:44:19;210.35;;;111.43;;
52982;SDS011;48698;45.736;13.926;2023-02-01T20:49:32;171.15;;;108.95;;
52982;SDS011;48698;45.736;13.926;2023-02-01T20:54:36;150.27;;;97.00;;
52982;SDS011;48698;45.736;13.926;2023-02-01T20:59:39;149.85;;;96.00;;
52982;SDS011;48698;45.736;13.926;2023-02-01T21:04:42;143.43;;;93.90;;
52982;SDS011;48698;45.736;13.926;2023-02-01T21:09:55;172.32;;;107.50;;
52982;SDS011;48698;45.736;13.926;2023-02-01T21:15:08;166.85;;;103.05;;
52982;SDS011;48698;45.736;13.926;2023-02-01T21:20:12;154.43;;;104.82;;
52982;SDS011;48698;45.736;13.926;2023-02-01T21:25:15;140.68;;;94.85;;
52982;SDS011;48698;45.736;13.926;2023-02-01T21:30:18;176.82;;;111.15;;
52982;SDS011;48698;45.736;13.926;2023-02-01T21:35:21;376.85;;;266.48;;
52982;SDS011;48698;45.736;13.926;2023-02-01T21:40:24;168.90;;;102.55;;
52982;SDS011;48698;45.736;13.926;2023-02-01T21:45:27;151.43;;;94.57;;
52982;SDS011;48698;45.736;13.926;2023-02-01T21:50:29;179.07;;;102.25;;
52982;SDS011;48698;45.736;13.926;2023-02-01T21:55:32;158.25;;;99.00;;
52982;SDS011;48698;45.736;13.926;2023-02-01T22:00:53;148.40;;;94.40;;
52982;SDS011;48698;45.736;13.926;2023-02-01T22:05:56;155.27;;;96.28;;
52982;SDS011;48698;45.736;13.926;2023-02-01T22:10:58;145.27;;;90.13;;
52982;SDS011;48698;45.736;13.926;2023-02-01T22:16:02;179.43;;;102.30;;
52982;SDS011;48698;45.736;13.926;2023-02-01T22:21:11;145.80;;;92.45;;
52982;SDS011;48698;45.736;13.926;2023-02-01T22:26:14;147.45;;;93.43;;
52982;SDS011;48698;45.736;13.926;2023-02-01T22:31:17;164.40;;;99.68;;
52982;SDS011;48698;45.736;13.926;2023-02-01T22:36:21;171.98;;;102.00;;
52982;SDS011;48698;45.736;13.926;2023-02-01T22:41:26;184.05;;;105.72;;
52982;SDS011;48698;45.736;13.926;2023-02-01T22:46:28;145.38;;;93.65;;
52982;SDS011;48698;45.736;13.926;2023-02-01T22:51:33;153.73;;;93.33;;
52982;SDS011;48698;45.736;13.926;2023-02-01T22:56:36;142.75;;;87.63;;
52982;SDS011;48698;45.736;13.926;2023-02-01T23:01:39;134.20;;;86.25;;
52982;SDS011;48698;45.736;13.926;2023-02-01T23:06:42;160.30;;;94.40;;
52982;SDS011;48698;45.736;13.926;2023-02-01T23:11:45;433.98;;;329.08;;
52982;SDS011;48698;45.736;13.926;2023-02-01T23:16:48;941.90;;;738.40;;
52982;SDS011;48698;45.736;13.926;2023-02-01T23:22:01;160.77;;;100.78;;
52982;SDS011;48698;45.736;13.926;2023-02-01T23:27:03;174.05;;;101.38;;
52982;SDS011;48698;45.736;13.926;2023-02-01T23:32:06;174.48;;;101.43;;
52982;SDS011;48698;45.736;13.926;2023-02-01T23:37:19;156.77;;;95.93;;
52982;SDS011;48698;45.736;13.926;2023-02-01T23:42:21;193.95;;;108.95;;
52982;SDS011;48698;45.736;13.926;2023-02-01T23:47:28;198.40;;;105.40;;
52982;SDS011;48698;45.736;13.926;2023-02-01T23:52:31;180.57;;;102.63;;
52982;SDS011;48698;45.736;13.926;2023-02-01T23:57:44;172.98;;;102.38;;
